sensor_id;sensor_type;location;lat;lon;timestamp;P1;durP1;ratioP1;P2;durP2;ratioP2
44126;SDS011;29786;50.798;7.302;2022-08-21T00:00:59;15.1;;;5.2;;
44126;SDS011;29786;50.798;7.302;2022-08-21T00:01:59;10.3;;;5.3;;
44126;SDS011;29786;50.798;7.302;2022-08-21T00:03:00;13;;;5.5;;
44126;SDS011;29786;50.798;7.302;2022-08-21T00:04:03;11.1;;;4.9;;
44126;SDS011;29786;50.798;7.302;2022-08-21T00:04:59;10.3;;;4.8;;
44126;SDS011;29786;50.798;7.302;2022-08-21T00:05:59;10.5;;;5;;
44126;SDS011;29786;50.798;7.302;2022-08-21T00:06:59;10.2;;;4.8;;
44126;SDS011;29786;50.798;7.302;2022-08-21T00:07:59;11.1;;;5.1;;
44126;SDS011;29786;50.798;7.302;2022-08-21T00:09:00;9.4;;;5;;
44126;SDS011;29786;50.798;7.302;2022-08-21T00:09:59;8.9;;;4.9;;
44126;SDS011;29786;50.798;7.302;2022-08-21T00:10:59;9.9;;;4.8;;
44126;SDS011;29786;50.798;7.302;2022-08-21T00:11:59;7.5;;;5;;
44126;SDS011;29786;50.798;7.302;2022-08-21T00:13:01;11.5;;;4.9;;
44126;SDS011;29786;50.798;7.302;2022-08-21T00:13:59;9;;;5.2;;
44126;SDS011;29786;50.798;7.302;2022-08-21T00:14:59;8.9;;;4.6;;
44126;SDS011;29786;50.798;7.302;2022-08-21T00:15:59;10;;;5.1;;
44126;SDS011;29786;50.798;7.302;2022-08-21T00:16:59;12.3;;;5;;
44126;SDS011;29786;50.798;7.302;2022-08-21T00:17:59;6.6;;;4.4;;
44126;SDS011;29786;50.798;7.302;2022-08-21T00:18:59;11.3;;;5.5;;
44126;SDS011;29786;50.798;7.302;2022-08-21T00:19:59;9.7;;;4.8;;
44126;SDS011;29786;50.798;7.302;2022-08-21T00:20:59;8.9;;;4.8;;
44126;SDS011;29786;50.798;7.302;2022-08-21T00:21:59;8.2;;;4.3;;
44126;SDS011;29786;50.798;7.302;2022-08-21T00:22:59;6.8;;;4.3;;
44126;SDS011;29786;50.798;7.302;2022-08-21T00:23:59;8;;;4.6;;
44126;SDS011;29786;50.798;7.302;2022-08-21T00:24:59;9.9;;;4.6;;
44126;SDS011;29786;50.798;7.302;2022-08-21T00:25:59;8.7;;;4.5;;
44126;SDS011;29786;50.798;7.302;2022-08-21T00:26:59;8.5;;;4.7;;
44126;SDS011;29786;50.798;7.302;2022-08-21T00:27:59;7.4;;;4.3;;
44126;SDS011;29786;50.798;7.302;2022-08-21T00:28:59;10.7;;;4.6;;
44126;SDS011;29786;50.798;7.302;2022-08-21T00:29:59;9.5;;;5;;
44126;SDS011;29786;50.798;7.302;2022-08-21T00:30:59;9.1;;;4.8;;
44126;SDS011;29786;50.798;7.302;2022-08-21T00:31:59;10.8;;;5;;
44126;SDS011;29786;50.798;7.302;2022-08-21T00:33:00;7.9;;;4.4;;
44126;SDS011;29786;50.798;7.302;2022-08-21T00:33:59;11.2;;;4.5;;
44126;SDS011;29786;50.798;7.302;2022-08-21T00:34:59;8.2;;;4.2;;
44126;SDS011;29786;50.798;7.302;2022-08-21T00:35:59;9.1;;;4.5;;
44126;SDS011;29786;50.798;7.302;2022-08-21T00:36:59;8.4;;;4.2;;
44126;SDS011;29786;50.798;7.302;2022-08-21T00:37:59;9.3;;;4.3;;
44126;SDS011;29786;50.798;7.302;2022-08-21T00:38:59;10.1;;;4.7;;
44126;SDS011;29786;50.798;7.302;2022-08-21T00:39:59;7.7;;;4.4;;
44126;SDS011;29786;50.798;7.302;2022-08-21T00:41:00;7.8;;;5;;
44126;SDS011;29786;50.798;7.302;2022-08-21T00:41:59;9.7;;;4.9;;
44126;SDS011;29786;50.798;7.302;2022-08-21T00:43:00;10.3;;;5.1;;
44126;SDS011;29786;50.798;7.302;2022-08-21T00:43:59;14.9;;;5.2;;
44126;SDS011;29786;50.798;7.302;2022-08-21T00:44:59;8.8;;;5;;
44126;SDS011;29786;50.798;7.302;2022-08-21T00:45:59;11.3;;;5.2;;
44126;SDS011;29786;50.798;7.302;2022-08-21T00:46:59;9.9;;;4.8;;
44126;SDS011;29786;50.798;7.302;2022-08-21T00:47:59;8;;;4.9;;
44126;SDS011;29786;50.798;7.302;2022-08-21T00:48:59;7.6;;;4.7;;
44126;SDS011;29786;50.798;7.302;2022-08-21T00:49:59;8.4;;;4.8;;
44126;SDS011;29786;50.798;7.302;2022-08-21T00:51:00;9.8;;;4.9;;
44126;SDS011;29786;50.798;7.302;2022-08-21T00:51:59;8.3;;;4.7;;
44126;SDS011;29786;50.798;7.302;2022-08-21T00:52:59;10.1;;;5.3;;
44126;SDS011;29786;50.798;7.302;2022-08-21T00:53:59;8.6;;;4.6;;
44126;SDS011;29786;50.798;7.302;2022-08-21T00:54:59;10.7;;;5.3;;
44126;SDS011;29786;50.798;7.302;2022-08-21T00:55:59;10.1;;;5;;
44126;SDS011;29786;50.798;7.302;2022-08-21T00:57:03;8.8;;;4.8;;
44126;SDS011;29786;50.798;7.302;2022-08-21T00:58:00;8.5;;;5.2;;
44126;SDS011;29786;50.798;7.302;2022-08-21T00:58:59;11.7;;;5.7;;
44126;SDS011;29786;50.798;7.302;2022-08-21T01:00:00;10;;;4.9;;
44126;SDS011;29786;50.798;7.302;2022-08-21T01:00:59;7.6;;;4.9;;
44126;SDS011;29786;50.798;7.302;2022-08-21T01:01:59;13.1;;;6;;
44126;SDS011;29786;50.798;7.302;2022-08-21T01:03:01;8.6;;;5.2;;
44126;SDS011;29786;50.798;7.302;2022-08-21T01:03:59;10.1;;;4.8;;
44126;SDS011;29786;50.798;7.302;2022-08-21T01:05:00;9;;;4.6;;
44126;SDS011;29786;50.798;7.302;2022-08-21T01:05:59;8.5;;;4.7;;
44126;SDS011;29786;50.798;7.302;2022-08-21T01:06:59;11;;;4.7;;
44126;SDS011;29786;50.798;7.302;2022-08-21T01:07:59;7.8;;;4.7;;
44126;SDS011;29786;50.798;7.302;2022-08-21T01:08:59;6.5;;;4.3;;
44126;SDS011;29786;50.798;7.302;2022-08-21T01:09:59;11;;;4.6;;
44126;SDS011;29786;50.798;7.302;2022-08-21T01:10:59;8;;;4.4;;
44126;SDS011;29786;50.798;7.302;2022-08-21T01:11:59;8.7;;;4.5;;
44126;SDS011;29786;50.798;7.302;2022-08-21T01:12:59;8.2;;;4.4;;
44126;SDS011;29786;50.798;7.302;2022-08-21T01:13:59;8.9;;;4.3;;
44126;SDS011;29786;50.798;7.302;2022-08-21T01:15:00;11.2;;;4.7;;
44126;SDS011;29786;50.798;7.302;2022-08-21T01:15:59;9.3;;;4.2;;
44126;SDS011;29786;50.798;7.302;2022-08-21T01:16:59;9.7;;;4.6;;
44126;SDS011;29786;50.798;7.302;2022-08-21T01:17:59;8;;;4.4;;
44126;SDS011;29786;50.798;7.302;2022-08-21T01:18:59;7.8;;;4.7;;
44126;SDS011;29786;50.798;7.302;2022-08-21T01:19:59;10.5;;;4.5;;
44126;SDS011;29786;50.798;7.302;2022-08-21T01:21:04;6.7;;;4.1;;
44126;SDS011;29786;50.798;7.302;2022-08-21T01:21:59;9.9;;;4.6;;
44126;SDS011;29786;50.798;7.302;2022-08-21T01:23:00;5.6;;;4.1;;
44126;SDS011;29786;50.798;7.302;2022-08-21T01:23:59;8.2;;;4.4;;
44126;SDS011;29786;50.798;7.302;2022-08-21T01:24:59;11.6;;;4.4;;
44126;SDS011;29786;50.798;7.302;2022-08-21T01:25:59;7;;;4.5;;
44126;SDS011;29786;50.798;7.302;2022-08-21T01:26:59;7.4;;;4.3;;
44126;SDS011;29786;50.798;7.302;2022-08-21T01:28:00;6.7;;;3.9;;
44126;SDS011;29786;50.798;7.302;2022-08-21T01:30:07;8.1;;;4.1;;
44126;SDS011;29786;50.798;7.302;2022-08-21T01:30:08;11.5;;;4.7;;
44126;SDS011;29786;50.798;7.302;2022-08-21T01:30:59;8.2;;;4.4;;
44126;SDS011;29786;50.798;7.302;2022-08-21T01:31:59;9.2;;;4.7;;
44126;SDS011;29786;50.798;7.302;2022-08-21T01:32:59;7.7;;;4.4;;
44126;SDS011;29786;50.798;7.302;2022-08-21T01:33:59;9.8;;;4.8;;
44126;SDS011;29786;50.798;7.302;2022-08-21T01:34:59;6.2;;;4.2;;
44126;SDS011;29786;50.798;7.302;2022-08-21T01:35:59;8.8;;;4.6;;
44126;SDS011;29786;50.798;7.302;2022-08-21T01:36:59;9.7;;;4.9;;
44126;SDS011;29786;50.798;7.302;2022-08-21T01:37:59;9.7;;;4.8;;
44126;SDS011;29786;50.798;7.302;2022-08-21T01:38:59;9.6;;;5.1;;
44126;SDS011;29786;50.798;7.302;2022-08-21T01:39:59;8.7;;;4.7;;
44126;SDS011;29786;50.798;7.302;2022-08-21T01:40:59;9;;;4.8;;
44126;SDS011;29786;50.798;7.302;2022-08-21T01:41:59;10.7;;;5;;
44126;SDS011;29786;50.798;7.302;2022-08-21T01:42:59;9.2;;;5.1;;
44126;SDS011;29786;50.798;7.302;2022-08-21T01:43:59;10;;;5.3;;
44126;SDS011;29786;50.798;7.302;2022-08-21T01:44:59;8.9;;;4.6;;
44126;SDS011;29786;50.798;7.302;2022-08-21T01:45:59;10.2;;;4.8;;
44126;SDS011;29786;50.798;7.302;2022-08-21T01:47:00;9.3;;;5.1;;
44126;SDS011;29786;50.798;7.302;2022-08-21T01:47:59;10.3;;;4.8;;
44126;SDS011;29786;50.798;7.302;2022-08-21T01:48:59;8.7;;;4.6;;
44126;SDS011;29786;50.798;7.302;2022-08-21T01:49:59;8.2;;;4.8;;
44126;SDS011;29786;50.798;7.302;2022-08-21T01:50:59;8.6;;;4.3;;
44126;SDS011;29786;50.798;7.302;2022-08-21T01:51:59;8.6;;;4.5;;
44126;SDS011;29786;50.798;7.302;2022-08-21T01:52:59;7.4;;;4.5;;
44126;SDS011;29786;50.798;7.302;2022-08-21T01:53:59;10.5;;;5.2;;
44126;SDS011;29786;50.798;7.302;2022-08-21T01:54:59;9.2;;;5.5;;
44126;SDS011;29786;50.798;7.302;2022-08-21T01:55:59;10.6;;;5.5;;
44126;SDS011;29786;50.798;7.302;2022-08-21T01:56:59;7.4;;;4.5;;
44126;SDS011;29786;50.798;7.302;2022-08-21T01:57:59;10.1;;;4.8;;
44126;SDS011;29786;50.798;7.302;2022-08-21T01:58:59;8.9;;;5;;
44126;SDS011;29786;50.798;7.302;2022-08-21T01:59:59;9.1;;;5.1;;
44126;SDS011;29786;50.798;7.302;2022-08-21T02:01:00;9.1;;;5;;
44126;SDS011;29786;50.798;7.302;2022-08-21T02:01:59;12.4;;;5;;
44126;SDS011;29786;50.798;7.302;2022-08-21T02:02:59;9.9;;;5;;
44126;SDS011;29786;50.798;7.302;2022-08-21T02:03:59;8.9;;;5.4;;
44126;SDS011;29786;50.798;7.302;2022-08-21T02:04:59;8.2;;;5;;
44126;SDS011;29786;50.798;7.302;2022-08-21T02:05:59;10.1;;;5.5;;
44126;SDS011;29786;50.798;7.302;2022-08-21T02:07:00;8.6;;;5;;
44126;SDS011;29786;50.798;7.302;2022-08-21T02:08:00;11.5;;;5.8;;
44126;SDS011;29786;50.798;7.302;2022-08-21T02:08:59;9;;;5.7;;
44126;SDS011;29786;50.798;7.302;2022-08-21T02:09:59;8.6;;;5.2;;
44126;SDS011;29786;50.798;7.302;2022-08-21T02:10:59;11;;;5.6;;
44126;SDS011;29786;50.798;7.302;2022-08-21T02:11:59;10.6;;;5.9;;
44126;SDS011;29786;50.798;7.302;2022-08-21T02:12:59;10.4;;;6.1;;
44126;SDS011;29786;50.798;7.302;2022-08-21T02:13:59;12.1;;;5.7;;
44126;SDS011;29786;50.798;7.302;2022-08-21T02:14:59;10.9;;;5.6;;
44126;SDS011;29786;50.798;7.302;2022-08-21T02:15:59;13.8;;;6.3;;
44126;SDS011;29786;50.798;7.302;2022-08-21T02:16:59;11.1;;;5.5;;
44126;SDS011;29786;50.798;7.302;2022-08-21T02:18:00;10.7;;;6;;
44126;SDS011;29786;50.798;7.302;2022-08-21T02:18:59;9.2;;;5;;
44126;SDS011;29786;50.798;7.302;2022-08-21T02:19:59;12.1;;;5.1;;
44126;SDS011;29786;50.798;7.302;2022-08-21T02:20:59;10.1;;;5.7;;
44126;SDS011;29786;50.798;7.302;2022-08-21T02:21:59;8.4;;;5.1;;
44126;SDS011;29786;50.798;7.302;2022-08-21T02:22:59;11.3;;;5.1;;
44126;SDS011;29786;50.798;7.302;2022-08-21T02:23:59;9.8;;;5.8;;
44126;SDS011;29786;50.798;7.302;2022-08-21T02:24:59;9.5;;;5.5;;
44126;SDS011;29786;50.798;7.302;2022-08-21T02:26:00;9.5;;;6;;
44126;SDS011;29786;50.798;7.302;2022-08-21T02:26:59;11.7;;;5.9;;
44126;SDS011;29786;50.798;7.302;2022-08-21T02:27:59;11.4;;;5.5;;
44126;SDS011;29786;50.798;7.302;2022-08-21T02:28:59;9.1;;;5.4;;
44126;SDS011;29786;50.798;7.302;2022-08-21T02:29:59;12.7;;;6;;
44126;SDS011;29786;50.798;7.302;2022-08-21T02:30:59;9.7;;;5;;
44126;SDS011;29786;50.798;7.302;2022-08-21T02:31:59;10.2;;;4.7;;
44126;SDS011;29786;50.798;7.302;2022-08-21T02:32:59;9.6;;;5.4;;
44126;SDS011;29786;50.798;7.302;2022-08-21T02:33:59;8.8;;;5.3;;
44126;SDS011;29786;50.798;7.302;2022-08-21T02:34:59;9.3;;;5.5;;
44126;SDS011;29786;50.798;7.302;2022-08-21T02:35:59;10.7;;;5.5;;
44126;SDS011;29786;50.798;7.302;2022-08-21T02:36:59;8.7;;;5.4;;
44126;SDS011;29786;50.798;7.302;2022-08-21T02:38:01;10.8;;;5.7;;
44126;SDS011;29786;50.798;7.302;2022-08-21T02:38:59;13.1;;;5.9;;
44126;SDS011;29786;50.798;7.302;2022-08-21T02:40:00;12.3;;;5.6;;
44126;SDS011;29786;50.798;7.302;2022-08-21T02:40:59;11.9;;;5.8;;
44126;SDS011;29786;50.798;7.302;2022-08-21T02:41:59;13;;;5.6;;
44126;SDS011;29786;50.798;7.302;2022-08-21T02:42:59;9.5;;;5.8;;
44126;SDS011;29786;50.798;7.302;2022-08-21T02:43:59;11.1;;;5.5;;
44126;SDS011;29786;50.798;7.302;2022-08-21T02:44:59;7.5;;;5.7;;
44126;SDS011;29786;50.798;7.302;2022-08-21T02:45:59;9.7;;;5.2;;
44126;SDS011;29786;50.798;7.302;2022-08-21T02:46:59;10.4;;;5.1;;
44126;SDS011;29786;50.798;7.302;2022-08-21T02:48:00;8.6;;;5.5;;
44126;SDS011;29786;50.798;7.302;2022-08-21T02:48:59;9.5;;;4.8;;
44126;SDS011;29786;50.798;7.302;2022-08-21T02:49:59;8.7;;;5.7;;
44126;SDS011;29786;50.798;7.302;2022-08-21T02:51:00;11.5;;;5.4;;
44126;SDS011;29786;50.798;7.302;2022-08-21T02:51:59;10.6;;;5.9;;
44126;SDS011;29786;50.798;7.302;2022-08-21T02:53:00;10.2;;;5.6;;
44126;SDS011;29786;50.798;7.302;2022-08-21T02:53:59;9.3;;;5;;
44126;SDS011;29786;50.798;7.302;2022-08-21T02:54:59;8.7;;;5.3;;
44126;SDS011;29786;50.798;7.302;2022-08-21T02:56:00;8;;;5.1;;
44126;SDS011;29786;50.798;7.302;2022-08-21T02:56:59;9.4;;;5.7;;
44126;SDS011;29786;50.798;7.302;2022-08-21T02:57:59;10.3;;;5.2;;
44126;SDS011;29786;50.798;7.302;2022-08-21T02:58:59;8.5;;;5.4;;
44126;SDS011;29786;50.798;7.302;2022-08-21T02:59:59;8.4;;;4.7;;
44126;SDS011;29786;50.798;7.302;2022-08-21T03:00:59;10.3;;;5.1;;
44126;SDS011;29786;50.798;7.302;2022-08-21T03:01:59;10.1;;;4.8;;
44126;SDS011;29786;50.798;7.302;2022-08-21T03:02:59;8;;;4.9;;
44126;SDS011;29786;50.798;7.302;2022-08-21T03:03:59;7.8;;;5.1;;
44126;SDS011;29786;50.798;7.302;2022-08-21T03:04:59;9.7;;;5.8;;
44126;SDS011;29786;50.798;7.302;2022-08-21T03:05:59;9.5;;;5;;
44126;SDS011;29786;50.798;7.302;2022-08-21T03:06:59;8;;;5;;
44126;SDS011;29786;50.798;7.302;2022-08-21T03:08:00;9.1;;;5.5;;
44126;SDS011;29786;50.798;7.302;2022-08-21T03:08:59;9.2;;;5.3;;
44126;SDS011;29786;50.798;7.302;2022-08-21T03:09:59;11.7;;;5.3;;
44126;SDS011;29786;50.798;7.302;2022-08-21T03:10:59;9.6;;;5.3;;
44126;SDS011;29786;50.798;7.302;2022-08-21T03:11:59;11.2;;;5;;
44126;SDS011;29786;50.798;7.302;2022-08-21T03:12:59;9.8;;;5.9;;
44126;SDS011;29786;50.798;7.302;2022-08-21T03:13:59;10;;;5.7;;
44126;SDS011;29786;50.798;7.302;2022-08-21T03:14:59;9.3;;;5.5;;
44126;SDS011;29786;50.798;7.302;2022-08-21T03:15:59;8.9;;;5.5;;
44126;SDS011;29786;50.798;7.302;2022-08-21T03:16:59;9.7;;;5.6;;
44126;SDS011;29786;50.798;7.302;2022-08-21T03:17:59;11.2;;;5.2;;
44126;SDS011;29786;50.798;7.302;2022-08-21T03:18:59;9.7;;;5.4;;
44126;SDS011;29786;50.798;7.302;2022-08-21T03:19:59;10.2;;;5.2;;
44126;SDS011;29786;50.798;7.302;2022-08-21T03:20:59;9.4;;;5.3;;
44126;SDS011;29786;50.798;7.302;2022-08-21T03:21:59;7.8;;;5.4;;
44126;SDS011;29786;50.798;7.302;2022-08-21T03:22:59;8;;;4.9;;
44126;SDS011;29786;50.798;7.302;2022-08-21T03:23:59;7.5;;;5.5;;
44126;SDS011;29786;50.798;7.302;2022-08-21T03:24:59;10.4;;;5.4;;
44126;SDS011;29786;50.798;7.302;2022-08-21T03:25:59;8.6;;;5.6;;
44126;SDS011;29786;50.798;7.302;2022-08-21T03:26:59;11.7;;;5.1;;
44126;SDS011;29786;50.798;7.302;2022-08-21T03:28:00;9.9;;;5.4;;
44126;SDS011;29786;50.798;7.302;2022-08-21T03:28:59;9.5;;;5.5;;
44126;SDS011;29786;50.798;7.302;2022-08-21T03:30:00;9.8;;;5.6;;
44126;SDS011;29786;50.798;7.302;2022-08-21T03:30:59;10;;;5.1;;
44126;SDS011;29786;50.798;7.302;2022-08-21T03:31:59;10.6;;;5.3;;
44126;SDS011;29786;50.798;7.302;2022-08-21T03:32:59;11.5;;;6.1;;
44126;SDS011;29786;50.798;7.302;2022-08-21T03:33:59;12.1;;;6.4;;
44126;SDS011;29786;50.798;7.302;2022-08-21T03:34:59;8.7;;;5.6;;
44126;SDS011;29786;50.798;7.302;2022-08-21T03:36:00;8.9;;;5.5;;
44126;SDS011;29786;50.798;7.302;2022-08-21T03:36:59;10;;;5.9;;
44126;SDS011;29786;50.798;7.302;2022-08-21T03:37:59;10.3;;;5.9;;
44126;SDS011;29786;50.798;7.302;2022-08-21T03:38:59;12.2;;;6.5;;
44126;SDS011;29786;50.798;7.302;2022-08-21T03:39:59;10.1;;;5.8;;
44126;SDS011;29786;50.798;7.302;2022-08-21T03:40:59;10.8;;;5.4;;
44126;SDS011;29786;50.798;7.302;2022-08-21T03:41:59;10.1;;;5.9;;
44126;SDS011;29786;50.798;7.302;2022-08-21T03:42:59;9;;;5.3;;
44126;SDS011;29786;50.798;7.302;2022-08-21T03:43:59;10.6;;;6.1;;
44126;SDS011;29786;50.798;7.302;2022-08-21T03:45:00;8.6;;;5.2;;
44126;SDS011;29786;50.798;7.302;2022-08-21T03:46:01;9.4;;;5.9;;
44126;SDS011;29786;50.798;7.302;2022-08-21T03:46:59;12.8;;;6.1;;
44126;SDS011;29786;50.798;7.302;2022-08-21T03:48:00;11.6;;;6.6;;
44126;SDS011;29786;50.798;7.302;2022-08-21T03:48:59;8.3;;;5.7;;
44126;SDS011;29786;50.798;7.302;2022-08-21T03:49:59;10.5;;;5.9;;
44126;SDS011;29786;50.798;7.302;2022-08-21T03:50:59;11;;;5.6;;
44126;SDS011;29786;50.798;7.302;2022-08-21T03:51:59;11;;;5.9;;
44126;SDS011;29786;50.798;7.302;2022-08-21T03:52:59;9.4;;;5.8;;
44126;SDS011;29786;50.798;7.302;2022-08-21T03:53:59;12;;;6.3;;
44126;SDS011;29786;50.798;7.302;2022-08-21T03:54:59;9.7;;;5.5;;
44126;SDS011;29786;50.798;7.302;2022-08-21T03:55:59;13.2;;;5.8;;
44126;SDS011;29786;50.798;7.302;2022-08-21T03:56:59;13.5;;;6.5;;
44126;SDS011;29786;50.798;7.302;2022-08-21T03:57:59;9;;;5.5;;
44126;SDS011;29786;50.798;7.302;2022-08-21T03:58:59;11.3;;;5.9;;
44126;SDS011;29786;50.798;7.302;2022-08-21T03:59:59;11.8;;;6.4;;
44126;SDS011;29786;50.798;7.302;2022-08-21T04:01:00;9;;;6;;
44126;SDS011;29786;50.798;7.302;2022-08-21T04:02:00;10.6;;;6.8;;
44126;SDS011;29786;50.798;7.302;2022-08-21T04:02:59;10.1;;;5.7;;
44126;SDS011;29786;50.798;7.302;2022-08-21T04:03:59;11.9;;;6.3;;
44126;SDS011;29786;50.798;7.302;2022-08-21T04:04:59;11.4;;;6.1;;
44126;SDS011;29786;50.798;7.302;2022-08-21T04:05:59;11.3;;;5.8;;
44126;SDS011;29786;50.798;7.302;2022-08-21T04:06:59;11.4;;;6.3;;
44126;SDS011;29786;50.798;7.302;2022-08-21T04:08:00;9.8;;;5.9;;
44126;SDS011;29786;50.798;7.302;2022-08-21T04:08:59;9.7;;;6.1;;
44126;SDS011;29786;50.798;7.302;2022-08-21T04:09:59;9.5;;;6.3;;
44126;SDS011;29786;50.798;7.302;2022-08-21T04:11:00;10.2;;;6.1;;
44126;SDS011;29786;50.798;7.302;2022-08-21T04:11:59;11.6;;;6;;
44126;SDS011;29786;50.798;7.302;2022-08-21T04:12:59;10.2;;;5.8;;
44126;SDS011;29786;50.798;7.302;2022-08-21T04:13:59;10.2;;;5.8;;
44126;SDS011;29786;50.798;7.302;2022-08-21T04:14:59;9.9;;;6.4;;
44126;SDS011;29786;50.798;7.302;2022-08-21T04:15:59;10.4;;;6.1;;
44126;SDS011;29786;50.798;7.302;2022-08-21T04:16:59;11.6;;;5.9;;
44126;SDS011;29786;50.798;7.302;2022-08-21T04:17:59;10.1;;;6.3;;
44126;SDS011;29786;50.798;7.302;2022-08-21T04:18:59;10.6;;;6.3;;
44126;SDS011;29786;50.798;7.302;2022-08-21T04:19:59;9.1;;;5.8;;
44126;SDS011;29786;50.798;7.302;2022-08-21T04:20:59;13.1;;;6.3;;
44126;SDS011;29786;50.798;7.302;2022-08-21T04:21:59;15;;;7.3;;
44126;SDS011;29786;50.798;7.302;2022-08-21T04:22:59;9.1;;;5.4;;
44126;SDS011;29786;50.798;7.302;2022-08-21T04:23:59;8.1;;;5.8;;
44126;SDS011;29786;50.798;7.302;2022-08-21T04:24:59;9;;;5.8;;
44126;SDS011;29786;50.798;7.302;2022-08-21T04:25:59;9.9;;;6;;
44126;SDS011;29786;50.798;7.302;2022-08-21T04:26:59;12.2;;;6.5;;
44126;SDS011;29786;50.798;7.302;2022-08-21T04:27:59;10.4;;;6.3;;
44126;SDS011;29786;50.798;7.302;2022-08-21T04:28:59;10;;;6;;
44126;SDS011;29786;50.798;7.302;2022-08-21T04:29:59;9.3;;;6.7;;
44126;SDS011;29786;50.798;7.302;2022-08-21T04:30:59;11.6;;;6.7;;
44126;SDS011;29786;50.798;7.302;2022-08-21T04:31:59;10.9;;;6;;
44126;SDS011;29786;50.798;7.302;2022-08-21T04:32:59;10.6;;;6.5;;
44126;SDS011;29786;50.798;7.302;2022-08-21T04:33:59;10.5;;;6.1;;
44126;SDS011;29786;50.798;7.302;2022-08-21T04:35:00;10;;;6.5;;
44126;SDS011;29786;50.798;7.302;2022-08-21T04:35:59;11.1;;;6.4;;
44126;SDS011;29786;50.798;7.302;2022-08-21T04:36:59;10.7;;;6.8;;
44126;SDS011;29786;50.798;7.302;2022-08-21T04:37:59;14.8;;;6.6;;
44126;SDS011;29786;50.798;7.302;2022-08-21T04:38:59;9.2;;;6.5;;
44126;SDS011;29786;50.798;7.302;2022-08-21T04:39:59;11.9;;;7.2;;
44126;SDS011;29786;50.798;7.302;2022-08-21T04:40:59;11.5;;;6.3;;
44126;SDS011;29786;50.798;7.302;2022-08-21T04:41:59;9.3;;;6.2;;
44126;SDS011;29786;50.798;7.302;2022-08-21T04:43:02;8.6;;;6.6;;
44126;SDS011;29786;50.798;7.302;2022-08-21T04:43:59;11.7;;;5.9;;
44126;SDS011;29786;50.798;7.302;2022-08-21T04:44:59;10.7;;;6.1;;
44126;SDS011;29786;50.798;7.302;2022-08-21T04:45:59;12.2;;;6.1;;
44126;SDS011;29786;50.798;7.302;2022-08-21T04:46:59;11.8;;;6.3;;
44126;SDS011;29786;50.798;7.302;2022-08-21T04:47:59;11;;;6.4;;
44126;SDS011;29786;50.798;7.302;2022-08-21T04:48:59;11.8;;;6.6;;
44126;SDS011;29786;50.798;7.302;2022-08-21T04:49:59;9.5;;;6.4;;
44126;SDS011;29786;50.798;7.302;2022-08-21T04:51:02;10.8;;;5.9;;
44126;SDS011;29786;50.798;7.302;2022-08-21T04:51:59;13.5;;;6.7;;
44126;SDS011;29786;50.798;7.302;2022-08-21T04:52:59;12.1;;;6.4;;
44126;SDS011;29786;50.798;7.302;2022-08-21T04:54:02;10.5;;;6.5;;
44126;SDS011;29786;50.798;7.302;2022-08-21T04:55:00;13.3;;;6.9;;
44126;SDS011;29786;50.798;7.302;2022-08-21T04:56:01;13.2;;;6.4;;
44126;SDS011;29786;50.798;7.302;2022-08-21T04:57:00;12;;;6.6;;
44126;SDS011;29786;50.798;7.302;2022-08-21T04:57:59;9.8;;;6.9;;
44126;SDS011;29786;50.798;7.302;2022-08-21T04:58:59;11.2;;;6.8;;
44126;SDS011;29786;50.798;7.302;2022-08-21T04:59:59;10.6;;;6.5;;
44126;SDS011;29786;50.798;7.302;2022-08-21T05:00:59;13.8;;;6.6;;
44126;SDS011;29786;50.798;7.302;2022-08-21T05:01:59;12.4;;;6.4;;
44126;SDS011;29786;50.798;7.302;2022-08-21T05:02:59;9.9;;;6;;
44126;SDS011;29786;50.798;7.302;2022-08-21T05:03:59;10;;;6.8;;
44126;SDS011;29786;50.798;7.302;2022-08-21T05:04:59;10.3;;;6.9;;
44126;SDS011;29786;50.798;7.302;2022-08-21T05:05:59;10.8;;;6;;
44126;SDS011;29786;50.798;7.302;2022-08-21T05:07:00;9.4;;;6.3;;
44126;SDS011;29786;50.798;7.302;2022-08-21T05:07:59;12.3;;;7.1;;
44126;SDS011;29786;50.798;7.302;2022-08-21T05:08:59;12.5;;;6.8;;
44126;SDS011;29786;50.798;7.302;2022-08-21T05:09:59;12.3;;;7.1;;
44126;SDS011;29786;50.798;7.302;2022-08-21T05:10:59;12.9;;;6.8;;
44126;SDS011;29786;50.798;7.302;2022-08-21T05:12:00;12.7;;;7;;
44126;SDS011;29786;50.798;7.302;2022-08-21T05:12:59;16.3;;;7.4;;
44126;SDS011;29786;50.798;7.302;2022-08-21T05:13:59;12.5;;;6.4;;
44126;SDS011;29786;50.798;7.302;2022-08-21T05:14:59;13.6;;;7;;
44126;SDS011;29786;50.798;7.302;2022-08-21T05:15:59;11.3;;;6.6;;
44126;SDS011;29786;50.798;7.302;2022-08-21T05:16:59;18.1;;;7.6;;
44126;SDS011;29786;50.798;7.302;2022-08-21T05:17:59;14.4;;;7.8;;
44126;SDS011;29786;50.798;7.302;2022-08-21T05:18:59;10.2;;;6;;
44126;SDS011;29786;50.798;7.302;2022-08-21T05:19:59;9.8;;;6.1;;
44126;SDS011;29786;50.798;7.302;2022-08-21T05:20:59;11.8;;;6.6;;
44126;SDS011;29786;50.798;7.302;2022-08-21T05:21:59;11.3;;;6.8;;
44126;SDS011;29786;50.798;7.302;2022-08-21T05:22:59;12.3;;;7.1;;
44126;SDS011;29786;50.798;7.302;2022-08-21T05:23:59;9.4;;;6.3;;
44126;SDS011;29786;50.798;7.302;2022-08-21T05:24:59;13.4;;;7.6;;
44126;SDS011;29786;50.798;7.302;2022-08-21T05:25:59;10;;;6.5;;
44126;SDS011;29786;50.798;7.302;2022-08-21T05:26:59;11.2;;;7.2;;
44126;SDS011;29786;50.798;7.302;2022-08-21T05:27:59;10.6;;;6.7;;
44126;SDS011;29786;50.798;7.302;2022-08-21T05:28:59;12;;;7.3;;
44126;SDS011;29786;50.798;7.302;2022-08-21T05:29:59;10.8;;;6.1;;
44126;SDS011;29786;50.798;7.302;2022-08-21T05:30:59;11.9;;;6.5;;
44126;SDS011;29786;50.798;7.302;2022-08-21T05:31:59;12.2;;;7.4;;
44126;SDS011;29786;50.798;7.302;2022-08-21T05:33:00;11.9;;;6.7;;
44126;SDS011;29786;50.798;7.302;2022-08-21T05:33:59;11.5;;;6.8;;
44126;SDS011;29786;50.798;7.302;2022-08-21T05:34:59;9.9;;;6.3;;
44126;SDS011;29786;50.798;7.302;2022-08-21T05:35:59;13.5;;;6.7;;
44126;SDS011;29786;50.798;7.302;2022-08-21T05:36:59;15.1;;;7.1;;
44126;SDS011;29786;50.798;7.302;2022-08-21T05:37:59;10.5;;;6.4;;
44126;SDS011;29786;50.798;7.302;2022-08-21T05:38:59;12.4;;;7.6;;
44126;SDS011;29786;50.798;7.302;2022-08-21T05:39:59;11.8;;;6.7;;
44126;SDS011;29786;50.798;7.302;2022-08-21T05:40:59;12;;;7.3;;
44126;SDS011;29786;50.798;7.302;2022-08-21T05:41:59;9.2;;;6;;
44126;SDS011;29786;50.798;7.302;2022-08-21T05:42:59;11.4;;;6.2;;
44126;SDS011;29786;50.798;7.302;2022-08-21T05:43:59;12;;;6.2;;
44126;SDS011;29786;50.798;7.302;2022-08-21T05:44:59;9.9;;;5.8;;
44126;SDS011;29786;50.798;7.302;2022-08-21T05:45:59;11.5;;;6.3;;
44126;SDS011;29786;50.798;7.302;2022-08-21T05:47:07;9.4;;;5.8;;
44126;SDS011;29786;50.798;7.302;2022-08-21T05:48:07;13.2;;;7;;
44126;SDS011;29786;50.798;7.302;2022-08-21T05:48:59;12.6;;;7;;
44126;SDS011;29786;50.798;7.302;2022-08-21T05:49:59;12.2;;;6.9;;
44126;SDS011;29786;50.798;7.302;2022-08-21T05:51:04;11.8;;;6.7;;
44126;SDS011;29786;50.798;7.302;2022-08-21T05:51:59;13.5;;;6.7;;
44126;SDS011;29786;50.798;7.302;2022-08-21T05:52:59;11.7;;;5.9;;
44126;SDS011;29786;50.798;7.302;2022-08-21T05:53:59;9.6;;;6.4;;
44126;SDS011;29786;50.798;7.302;2022-08-21T05:54:59;13.6;;;6.9;;
44126;SDS011;29786;50.798;7.302;2022-08-21T05:55:59;14.5;;;7.1;;
44126;SDS011;29786;50.798;7.302;2022-08-21T05:56:59;10.8;;;6.4;;
44126;SDS011;29786;50.798;7.302;2022-08-21T05:57:59;11;;;5.9;;
44126;SDS011;29786;50.798;7.302;2022-08-21T05:58:59;14.2;;;7.1;;
44126;SDS011;29786;50.798;7.302;2022-08-21T05:59:59;10.7;;;7.1;;
44126;SDS011;29786;50.798;7.302;2022-08-21T06:00:59;11.1;;;7;;
44126;SDS011;29786;50.798;7.302;2022-08-21T06:01:59;9.6;;;6.7;;
44126;SDS011;29786;50.798;7.302;2022-08-21T06:02:59;12.2;;;6.7;;
44126;SDS011;29786;50.798;7.302;2022-08-21T06:03:59;10.6;;;7.1;;
44126;SDS011;29786;50.798;7.302;2022-08-21T06:04:59;13.3;;;6.4;;
44126;SDS011;29786;50.798;7.302;2022-08-21T06:05:59;12.5;;;6.3;;
44126;SDS011;29786;50.798;7.302;2022-08-21T06:06:59;11.3;;;6.4;;
44126;SDS011;29786;50.798;7.302;2022-08-21T06:07:59;11.2;;;6.3;;
44126;SDS011;29786;50.798;7.302;2022-08-21T06:08:59;12.2;;;6.3;;
44126;SDS011;29786;50.798;7.302;2022-08-21T06:09:59;11.3;;;6.5;;
44126;SDS011;29786;50.798;7.302;2022-08-21T06:10:59;13.1;;;7;;
44126;SDS011;29786;50.798;7.302;2022-08-21T06:12:03;11.4;;;7;;
44126;SDS011;29786;50.798;7.302;2022-08-21T06:12:59;12.5;;;7.1;;